Time;durP1;ratioP1;P1;durP2;ratioP2;P2;SDS_P1;SDS_P2;PMS_P1;PMS_P2;Temp;Humidity;BMP_temperature;BMP_pressure;BME280_temperature;BME280_humidity;BME280_pressure;Samples;Min_cycle;Max_cycle;Signal;HPM_P1;HPM_P2
2023/07/22 00:01:21;;;;;;;;;;;;;;;;;;4944652;28;7309;-86
2023/07/22 00:03:46;;;;;;;;;;;;;;;;;;4960865;28;7311;-85
2023/07/22 00:06:12;;;;;;;;;;;;;;;;;;4961949;28;8488;-87
2023/07/22 00:08:38;;;;;;;;;;;;;;;;;;4972794;28;7202;-86
2023/07/22 00:11:04;;;;;;;;;;;;;;;;;;4972323;28;7202;-86
2023/07/22 00:13:30;;;;;;;;;;;;;;;;;;4972813;28;7232;-85
2023/07/22 00:15:56;;;;;;;;;;;;;;;;;;4972447;28;8395;-86
2023/07/22 00:18:23;;;;;;;;;;;;;;;;;;4971987;28;7124;-85
2023/07/22 00:20:50;;;;;;;;;;;;;;;;;;4972171;28;9048;-87
2023/07/22 00:23:16;;;;;;;;;;;;;;;;;;4972111;28;8525;-86
2023/07/22 00:25:42;;;;;;;;;;;;;;;;;;4972112;28;8498;-86
2023/07/22 00:28:07;;;;;;;;;;;;;;;;;;4971798;28;7106;-85
2023/07/22 00:30:34;;;;;;;;;;;;;;;;;;4971889;28;8948;-86
2023/07/22 00:33:00;;;;;;;;;;;;;;;;;;4971869;28;9110;-86
2023/07/22 00:35:26;;;;;;;;;;;;;;;;;;4972194;28;7486;-87
2023/07/22 00:37:52;;;;;;;;;;;;;;;;;;4971739;28;8806;-87
2023/07/22 00:40:19;;;;;;;;;;;;;;;;;;4971650;28;8742;-86
2023/07/22 00:42:45;;;;;;;;;;;;;;;;;;4971811;28;7209;-86
2023/07/22 00:45:10;;;;;;;;;;;;;;;;;;4971423;28;8559;-87
2023/07/22 00:47:37;;;;;;;;;;;;;;;;;;4971737;28;8520;-86
2023/07/22 00:50:03;;;;;;;;;;;;;;;;;;4971659;28;8572;-86
2023/07/22 00:52:29;;;;;;;;;;;;;;;;;;4971278;28;7241;-85
2023/07/22 00:54:56;;;;;;;;;;;;;;;;;;4971640;28;9357;-86
2023/07/22 00:57:22;;;;;;;;;;;;;;;;;;4971491;28;7239;-86
2023/07/22 00:59:49;;;;;;;;;;;;;;;;;;4971384;28;8571;-86
2023/07/22 01:02:15;;;;;;;;;;;;;;;;;;4971369;28;8882;-84
2023/07/22 01:04:41;;;;;;;;;;;;;;;;;;4970963;28;8696;-85
2023/07/22 01:07:07;;;;;;;;;;;;;;;;;;4971272;28;8803;-85
2023/07/22 01:09:36;;;;;;;;;;;;;;;;;;4971093;28;7265;-85
2023/07/22 01:12:02;;;;;;;;;;;;;;;;;;4970717;28;7329;-85
2023/07/22 01:14:28;;;;;;;;;;;;;;;;;;4971078;28;8489;-85
2023/07/22 01:16:54;;;;;;;;;;;;;;;;;;4971220;28;7298;-84
2023/07/22 01:19:20;;;;;;;;;;;;;;;;;;4970393;28;7249;-86
2023/07/22 01:21:47;;;;;;;;;;;;;;;;;;4970223;28;8771;-85
2023/07/22 01:24:13;;;;;;;;;;;;;;;;;;4970717;28;8472;-86
2023/07/22 01:26:38;;;;;;;;;;;;;;;;;;4970916;28;8521;-86
2023/07/22 01:29:05;;;;;;;;;;;;;;;;;;4970569;28;8451;-87
2023/07/22 01:31:35;;;;;;;;;;;;;;;;;;4970506;28;7261;-86
2023/07/22 01:34:01;;;;;;;;;;;;;;;;;;4971058;28;7213;-85
2023/07/22 01:36:26;;;;;;;;;;;;;;;;;;4970405;28;8469;-85
2023/07/22 01:38:52;;;;;;;;;;;;;;;;;;4970717;28;8533;-86
2023/07/22 01:41:17;;;;;;;;;;;;;;;;;;4970639;28;8684;-87
2023/07/22 01:43:43;;;;;;;;;;;;;;;;;;4970441;28;8471;-86
2023/07/22 01:46:09;;;;;;;;;;;;;;;;;;4970395;28;7105;-86
2023/07/22 01:48:34;;;;;;;;;;;;;;;;;;4970133;28;8461;-86
2023/07/22 01:51:00;;;;;;;;;;;;;;;;;;4970353;28;8862;-85
2023/07/22 01:53:25;;;;;;;;;;;;;;;;;;4970657;28;7466;-86
2023/07/22 01:55:51;;;;;;;;;;;;;;;;;;4970062;28;9608;-85
2023/07/22 01:58:16;;;;;;;;;;;;;;;;;;4970343;28;8747;-86
2023/07/22 02:00:42;;;;;;;;;;;;;;;;;;4970716;28;8461;-84
2023/07/22 02:03:07;;;;;;;;;;;;;;;;;;4954140;28;7113;-85
2023/07/22 02:05:33;;;;;;;;;;;;;;;;;;4969971;28;8856;-85
2023/07/22 02:07:59;;;;;;;;;;;;;;;;;;4970532;28;7102;-85
2023/07/22 02:10:24;;;;;;;;;;;;;;;;;;4970323;28;7518;-86
2023/07/22 02:12:50;;;;;;;;;;;;;;;;;;4970521;28;7099;-84
2023/07/22 02:15:15;;;;;;;;;;;;;;;;;;4969834;28;8873;-84
2023/07/22 02:17:41;;;;;;;;;;;;;;;;;;4954050;28;7190;-85
2023/07/22 02:20:08;;;;;;;;;;;;;;;;;;4969964;28;8797;-85
2023/07/22 02:22:34;;;;;;;;;;;;;;;;;;4969268;28;7112;-85
2023/07/22 02:24:59;;;;;;;;;;;;;;;;;;4969715;28;7084;-84
2023/07/22 02:27:25;;;;;;;;;;;;;;;;;;4970036;28;7081;-85
2023/07/22 02:29:51;;;;;;;;;;;;;;;;;;4969880;28;7892;-84
2023/07/22 02:32:17;;;;;;;;;;;;;;;;;;4969873;28;7241;-85
2023/07/22 02:34:43;;;;;;;;;;;;;;;;;;4969736;28;7078;-85
2023/07/22 02:37:08;;;;;;;;;;;;;;;;;;4969536;28;7287;-85
2023/07/22 02:39:33;;;;;;;;;;;;;;;;;;4969573;28;8471;-85
2023/07/22 02:41:59;;;;;;;;;;;;;;;;;;4970021;28;8493;-85
2023/07/22 02:44:24;;;;;;;;;;;;;;;;;;4969505;28;7270;-85
2023/07/22 02:46:50;;;;;;;;;;;;;;;;;;4969919;28;9487;-85
2023/07/22 02:49:15;;;;;;;;;;;;;;;;;;4969958;28;7227;-86
2023/07/22 02:51:40;;;;;;;;;;;;;;;;;;4969930;28;7208;-86
2023/07/22 02:54:06;;;;;;;;;;;;;;;;;;4969771;28;8448;-86
2023/07/22 02:56:32;;;;;;;;;;;;;;;;;;4969876;28;8862;-86
2023/07/22 02:58:57;;;;;;;;;;;;;;;;;;4969718;28;8523;-86
2023/07/22 03:01:24;;;;;;;;;;;;;;;;;;4969633;28;9222;-85
2023/07/22 03:03:50;;;;;;;;;;;;;;;;;;4953357;28;7329;-85
2023/07/22 03:06:15;;;;;;;;;;;;;;;;;;4969477;28;8762;-86
2023/07/22 03:08:41;;;;;;;;;;;;;;;;;;4969487;28;7125;-86
2023/07/22 03:11:06;;;;;;;;;;;;;;;;;;4969903;28;7080;-85
2023/07/22 03:13:34;;;;;;;;;;;;;;;;;;4969719;28;8318;-86
2023/07/22 03:16:03;;;;;;;;;;;;;;;;;;4969321;28;8975;-86
2023/07/22 03:18:30;;;;;;;;;;;;;;;;;;4968901;28;7187;-86
2023/07/22 03:20:57;;;;;;;;;;;;;;;;;;4969441;28;7509;-86
2023/07/22 03:23:22;;;;;;;;;;;;;;;;;;4969415;28;8548;-86
2023/07/22 03:25:47;;;;;;;;;;;;;;;;;;4969454;28;8849;-86
2023/07/22 03:28:13;;;;;;;;;;;;;;;;;;4969843;28;7154;-86
2023/07/22 03:30:38;;;;;;;;;;;;;;;;;;4969826;28;8468;-86
2023/07/22 03:33:05;;;;;;;;;;;;;;;;;;4969538;28;8750;-86
2023/07/22 03:35:31;;;;;;;;;;;;;;;;;;4972990;28;7192;-85
2023/07/22 03:37:57;;;;;;;;;;;;;;;;;;4972953;28;8424;-85
2023/07/22 03:40:27;;;;;;;;;;;;;;;;;;4972708;28;8789;-86
2023/07/22 03:42:54;;;;;;;;;;;;;;;;;;4972716;28;8972;-86
2023/07/22 03:45:21;;;;;;;;;;;;;;;;;;4972530;28;8713;-86
2023/07/22 03:47:47;;;;;;;;;;;;;;;;;;4972502;28;7101;-85
2023/07/22 03:50:13;;;;;;;;;;;;;;;;;;4973002;28;8580;-87
2023/07/22 03:52:39;;;;;;;;;;;;;;;;;;4972631;28;8693;-87
2023/07/22 03:55:05;;;;;;;;;;;;;;;;;;4972261;28;8483;-87
2023/07/22 03:57:31;;;;;;;;;;;;;;;;;;4972676;28;8666;-87
2023/07/22 03:59:57;;;;;;;;;;;;;;;;;;4972157;28;7098;-87
2023/07/22 04:02:24;;;;;;;;;;;;;;;;;;4972251;28;8482;-87
2023/07/22 04:04:56;;;;;;;;;;;;;;;;;;4972357;28;7122;-85
2023/07/22 04:07:21;;;;;;;;;;;;;;;;;;4972316;28;8493;-86
2023/07/22 04:09:47;;;;;;;;;;;;;;;;;;4972372;28;7239;-85
2023/07/22 04:12:13;;;;;;;;;;;;;;;;;;4972177;28;8495;-86
2023/07/22 04:14:38;;;;;;;;;;;;;;;;;;4972263;28;8795;-85
2023/07/22 04:17:04;;;;;;;;;;;;;;;;;;4972306;28;8734;-86
2023/07/22 04:19:30;;;;;;;;;;;;;;;;;;4971583;28;7332;-86
2023/07/22 04:21:57;;;;;;;;;;;;;;;;;;4971995;28;8576;-86
2023/07/22 04:24:22;;;;;;;;;;;;;;;;;;4972113;28;8722;-86
2023/07/22 04:26:48;;;;;;;;;;;;;;;;;;4971806;28;7226;-85
2023/07/22 04:29:14;;;;;;;;;;;;;;;;;;4971988;28;8500;-85
2023/07/22 04:31:39;;;;;;;;;;;;;;;;;;4971985;28;7217;-86
2023/07/22 04:34:07;;;;;;;;;;;;;;;;;;4971833;28;8474;-86
2023/07/22 04:36:33;;;;;;;;;;;;;;;;;;4971720;28;7112;-85
2023/07/22 04:38:59;;;;;;;;;;;;;;;;;;4971766;28;7196;-85
2023/07/22 04:41:25;;;;;;;;;;;;;;;;;;4971633;28;8644;-85
2023/07/22 04:43:51;;;;;;;;;;;;;;;;;;4971261;28;7240;-85
2023/07/22 04:46:16;;;;;;;;;;;;;;;;;;4970419;28;8412;-85
2023/07/22 04:48:42;;;;;;;;;;;;;;;;;;4971599;28;7076;-85
2023/07/22 04:51:08;;;;;;;;;;;;;;;;;;4971390;28;7045;-85
2023/07/22 04:53:33;;;;;;;;;;;;;;;;;;4971489;28;8824;-85
2023/07/22 04:55:59;;;;;;;;;;;;;;;;;;4971229;28;8549;-86
2023/07/22 04:58:24;;;;;;;;;;;;;;;;;;4971123;28;7201;-86
2023/07/22 05:00:50;;;;;;;;;;;;;;;;;;4971460;28;8721;-85
2023/07/22 05:03:18;;;;;;;;;;;;;;;;;;4971281;28;7462;-86
2023/07/22 05:05:43;;;;;;;;;;;;;;;;;;4971069;28;7252;-86
2023/07/22 05:08:09;;;;;;;;;;;;;;;;;;4971343;28;8385;-85
2023/07/22 05:10:34;;;;;;;;;;;;;;;;;;4970890;28;7166;-86
2023/07/22 05:13:00;;;;;;;;;;;;;;;;;;4971111;28;8394;-86
2023/07/22 05:15:25;;;;;;;;;;;;;;;;;;4970874;28;7088;-85
2023/07/22 05:17:51;;;;;;;;;;;;;;;;;;4969884;28;7203;-86
2023/07/22 05:20:17;;;;;;;;;;;;;;;;;;4951763;28;7901;-87
2023/07/22 05:22:43;;;;;;;;;;;;;;;;;;4951876;28;7437;-85
2023/07/22 05:25:12;;;;;;;;;;;;;;;;;;4951813;28;7245;-86
2023/07/22 05:27:37;;;;;;;;;;;;;;;;;;4951689;28;7152;-86
2023/07/22 05:30:03;;;;;;;;;;;;;;;;;;4952059;28;7101;-87
2023/07/22 05:32:32;;;;;;;;;;;;;;;;;;4951262;28;8362;-86
2023/07/22 05:34:57;;;;;;;;;;;;;;;;;;4951459;28;8516;-86
2023/07/22 05:37:25;;;;;;;;;;;;;;;;;;4951473;28;7097;-87
2023/07/22 05:39:51;;;;;;;;;;;;;;;;;;4951255;28;9136;-86
2023/07/22 05:42:16;;;;;;;;;;;;;;;;;;4951642;28;6915;-86
2023/07/22 05:44:42;;;;;;;;;;;;;;;;;;4951243;28;7079;-85
2023/07/22 05:47:08;;;;;;;;;;;;;;;;;;4951499;28;7082;-86
2023/07/22 05:49:33;;;;;;;;;;;;;;;;;;4951235;28;8691;-86
2023/07/22 05:51:59;;;;;;;;;;;;;;;;;;4951249;28;8515;-86
2023/07/22 05:54:24;;;;;;;;;;;;;;;;;;4951492;28;7102;-85
2023/07/22 05:56:50;;;;;;;;;;;;;;;;;;4951983;28;7098;-82
2023/07/22 05:59:15;;;;;;;;;;;;;;;;;;4969046;28;8430;-83
2023/07/22 06:01:41;;;;;;;;;;;;;;;;;;4969205;28;8656;-87
2023/07/22 06:04:06;;;;;;;;;;;;;;;;;;4965516;28;7313;-83
2023/07/22 06:06:32;;;;;;;;;;;;;;;;;;4948784;28;7318;-89
2023/07/22 06:08:57;;;;;;;;;;;;;;;;;;4950832;28;7113;-88
2023/07/22 06:11:23;;;;;;;;;;;;;;;;;;4953336;28;7234;-83
2023/07/22 06:13:48;;;;;;;;;;;;;;;;;;4953021;28;8803;-85
2023/07/22 06:16:14;;;;;;;;;;;;;;;;;;4953000;28;8922;-83
2023/07/22 06:18:40;;;;;;;;;;;;;;;;;;4953379;28;8495;-84
2023/07/22 06:21:05;;;;;;;;;;;;;;;;;;4953737;28;8573;-83
2023/07/22 06:23:30;;;;;;;;;;;;;;;;;;4953648;28;8558;-84
2023/07/22 06:25:56;;;;;;;;;;;;;;;;;;4942103;28;8510;-85
2023/07/22 06:28:22;;;;;;;;;;;;;;;;;;4934801;29;9094;-83
2023/07/22 06:30:47;;;;;;;;;;;;;;;;;;4934203;29;7254;-82
2023/07/22 06:33:12;;;;;;;;;;;;;;;;;;4934175;29;8505;-83
2023/07/22 06:35:38;;;;;;;;;;;;;;;;;;4934321;29;7329;-82
2023/07/22 06:38:03;;;;;;;;;;;;;;;;;;4934124;29;8446;-84
2023/07/22 06:40:29;;;;;;;;;;;;;;;;;;4934292;29;8514;-84
2023/07/22 06:42:54;;;;;;;;;;;;;;;;;;4934410;29;8406;-83
2023/07/22 06:45:20;;;;;;;;;;;;;;;;;;4934667;29;8494;-84
2023/07/22 06:47:46;;;;;;;;;;;;;;;;;;4934532;29;7238;-84
2023/07/22 06:50:12;;;;;;;;;;;;;;;;;;4934222;29;8400;-84
2023/07/22 06:52:38;;;;;;;;;;;;;;;;;;4934947;29;7255;-84
2023/07/22 06:55:04;;;;;;;;;;;;;;;;;;4934419;29;7802;-83
2023/07/22 06:57:29;;;;;;;;;;;;;;;;;;4934353;29;7168;-83
2023/07/22 06:59:55;;;;;;;;;;;;;;;;;;4934034;29;8490;-82
2023/07/22 07:02:21;;;;;;;;;;;;;;;;;;4934413;29;8730;-84
2023/07/22 07:04:47;;;;;;;;;;;;;;;;;;4934424;29;8504;-83
2023/07/22 07:07:13;;;;;;;;;;;;;;;;;;4934341;29;7142;-84
2023/07/22 07:09:40;;;;;;;;;;;;;;;;;;4936907;29;7098;-84
2023/07/22 07:12:06;;;;;;;;;;;;;;;;;;4938240;29;7875;-84
2023/07/22 07:14:35;;;;;;;;;;;;;;;;;;4937967;29;7330;-84
2023/07/22 07:17:02;;;;;;;;;;;;;;;;;;4938320;29;7231;-83
2023/07/22 07:19:28;;;;;;;;;;;;;;;;;;4938032;29;8811;-85
2023/07/22 07:21:53;;;;;;;;;;;;;;;;;;4938023;29;8529;-83
2023/07/22 07:24:19;;;;;;;;;;;;;;;;;;4937842;29;7193;-84
2023/07/22 07:26:45;;;;;;;;;;;;;;;;;;4937352;29;8529;-84
2023/07/22 07:29:12;;;;;;;;;;;;;;;;;;4938186;28;8506;-85
2023/07/22 07:31:38;;;;;;;;;;;;;;;;;;4937396;29;8470;-84
2023/07/22 07:34:04;;;;;;;;;;;;;;;;;;4939175;28;8511;-84
2023/07/22 07:36:30;;;;;;;;;;;;;;;;;;4937898;29;8508;-85
2023/07/22 07:38:55;;;;;;;;;;;;;;;;;;4953690;28;8438;-84
2023/07/22 07:41:21;;;;;;;;;;;;;;;;;;4954033;28;7235;-85
2023/07/22 07:43:46;;;;;;;;;;;;;;;;;;4956292;28;7240;-85
2023/07/22 07:46:21;;;;;;;;;;;;;;;;;;4951861;28;8527;-85
2023/07/22 07:48:48;;;;;;;;;;;;;;;;;;4972887;28;7158;-85
2023/07/22 07:51:14;;;;;;;;;;;;;;;;;;4958851;28;7318;-83
2023/07/22 07:53:41;;;;;;;;;;;;;;;;;;4956739;28;8657;-83
2023/07/22 07:56:07;;;;;;;;;;;;;;;;;;4956494;28;8640;-84
2023/07/22 07:58:32;;;;;;;;;;;;;;;;;;4954606;28;9493;-82
2023/07/22 08:00:58;;;;;;;;;;;;;;;;;;4956217;28;7331;-83
2023/07/22 08:03:23;;;;;;;;;;;;;;;;;;4972502;28;7119;-83
2023/07/22 08:05:49;;;;;;;;;;;;;;;;;;4972407;28;8513;-82
2023/07/22 08:08:14;;;;;;;;;;;;;;;;;;4969069;28;9451;-82
2023/07/22 08:10:40;;;;;;;;;;;;;;;;;;4953219;28;7236;-84
2023/07/22 08:13:06;;;;;;;;;;;;;;;;;;4953082;28;7309;-83
2023/07/22 08:15:31;;;;;;;;;;;;;;;;;;4952706;28;8554;-83
2023/07/22 08:17:57;;;;;;;;;;;;;;;;;;4952798;28;8517;-85
2023/07/22 08:20:22;;;;;;;;;;;;;;;;;;4951514;28;7300;-84
2023/07/22 08:22:48;;;;;;;;;;;;;;;;;;4950817;28;8602;-86
2023/07/22 08:25:13;;;;;;;;;;;;;;;;;;4936807;29;8438;-85
2023/07/22 08:27:39;;;;;;;;;;;;;;;;;;4937069;29;8493;-86
2023/07/22 08:30:04;;;;;;;;;;;;;;;;;;4971749;28;7231;-83
2023/07/22 08:32:30;;;;;;;;;;;;;;;;;;4972066;28;7682;-84
2023/07/22 08:34:55;;;;;;;;;;;;;;;;;;4971669;28;8596;-86
2023/07/22 08:37:21;;;;;;;;;;;;;;;;;;4945424;28;8604;-84
2023/07/22 08:39:46;;;;;;;;;;;;;;;;;;4952281;28;8576;-89
2023/07/22 08:42:14;;;;;;;;;;;;;;;;;;4936525;29;8641;-88
2023/07/22 08:44:43;;;;;;;;;;;;;;;;;;4936232;29;7140;-82
2023/07/22 08:47:10;;;;;;;;;;;;;;;;;;4936409;29;8485;-85
2023/07/22 08:49:36;;;;;;;;;;;;;;;;;;4936472;29;7119;-85
2023/07/22 08:52:01;;;;;;;;;;;;;;;;;;4935984;29;8474;-84
2023/07/22 08:54:28;;;;;;;;;;;;;;;;;;4936175;29;7183;-83
2023/07/22 08:56:53;;;;;;;;;;;;;;;;;;4936263;29;8530;-85
2023/07/22 08:59:20;;;;;;;;;;;;;;;;;;4935408;29;6903;-85
2023/07/22 09:01:48;;;;;;;;;;;;;;;;;;4934255;29;7138;-83
2023/07/22 09:04:14;;;;;;;;;;;;;;;;;;4934370;29;8477;-83
2023/07/22 09:06:41;;;;;;;;;;;;;;;;;;4934185;29;7136;-85
2023/07/22 09:09:09;;;;;;;;;;;;;;;;;;4934357;29;8531;-82
2023/07/22 09:11:35;;;;;;;;;;;;;;;;;;4934783;29;9578;-85
2023/07/22 09:14:02;;;;;;;;;;;;;;;;;;4935813;29;7252;-84
2023/07/22 09:16:28;;;;;;;;;;;;;;;;;;4935653;29;7541;-84
2023/07/22 09:18:58;;;;;;;;;;;;;;;;;;4935351;29;8592;-83
2023/07/22 09:21:23;;;;;;;;;;;;;;;;;;4935717;29;8543;-84
2023/07/22 09:23:49;;;;;;;;;;;;;;;;;;4935750;29;8565;-85
2023/07/22 09:26:18;;;;;;;;;;;;;;;;;;4951581;28;7209;-84
2023/07/22 09:28:50;;;;;;;;;;;;;;;;;;4950591;28;8523;-83
2023/07/22 09:31:16;;;;;;;;;;;;;;;;;;4935002;29;7133;-81
2023/07/22 09:33:42;;;;;;;;;;;;;;;;;;4935237;29;7262;-84
2023/07/22 09:36:09;;;;;;;;;;;;;;;;;;4949399;28;9015;-85
2023/07/22 09:38:34;;;;;;;;;;;;;;;;;;4946800;28;7270;-84
2023/07/22 09:41:01;;;;;;;;;;;;;;;;;;4970575;28;8513;-84
2023/07/22 09:43:26;;;;;;;;;;;;;;;;;;4970550;28;8503;-85
2023/07/22 09:45:53;;;;;;;;;;;;;;;;;;4970367;28;7005;-85
2023/07/22 09:48:21;;;;;;;;;;;;;;;;;;4941812;28;7162;-83
2023/07/22 09:50:55;;;;;;;;;;;;;;;;;;4951232;28;8615;-85
2023/07/22 09:53:21;;;;;;;;;;;;;;;;;;4951111;28;8804;-85
2023/07/22 09:55:47;;;;;;;;;;;;;;;;;;4950971;28;8545;-84
2023/07/22 09:58:14;;;;;;;;;;;;;;;;;;4951396;28;7237;-84
2023/07/22 10:00:43;;;;;;;;;;;;;;;;;;4950960;28;8575;-85
2023/07/22 10:03:10;;;;;;;;;;;;;;;;;;4950707;28;7168;-84
2023/07/22 10:05:38;;;;;;;;;;;;;;;;;;4950702;28;8573;-83
2023/07/22 10:08:05;;;;;;;;;;;;;;;;;;4950808;28;8511;-83
2023/07/22 10:10:35;;;;;;;;;;;;;;;;;;4951105;28;8542;-85
2023/07/22 10:13:01;;;;;;;;;;;;;;;;;;4950764;28;8894;-84
2023/07/22 10:15:29;;;;;;;;;;;;;;;;;;4950540;28;7267;-84
2023/07/22 10:17:55;;;;;;;;;;;;;;;;;;4950551;28;7259;-84
2023/07/22 10:20:22;;;;;;;;;;;;;;;;;;4934490;29;8517;-84
2023/07/22 10:22:49;;;;;;;;;;;;;;;;;;4934382;29;8578;-84
2023/07/22 10:25:16;;;;;;;;;;;;;;;;;;4934753;29;8537;-84
2023/07/22 10:27:43;;;;;;;;;;;;;;;;;;4934427;29;7285;-84
2023/07/22 10:30:10;;;;;;;;;;;;;;;;;;4934452;29;8840;-84
2023/07/22 10:32:37;;;;;;;;;;;;;;;;;;4934391;29;7160;-83
2023/07/22 10:35:03;;;;;;;;;;;;;;;;;;4941865;29;8708;-85
2023/07/22 10:37:34;;;;;;;;;;;;;;;;;;4950410;28;8028;-86
2023/07/22 10:40:20;;;;;;;;;;;;;;;;;;4950451;28;8625;-86
2023/07/22 10:42:53;;;;;;;;;;;;;;;;;;4936955;29;7149;-87
2023/07/22 10:45:27;;;;;;;;;;;;;;;;;;4954222;28;7284;-86
2023/07/22 10:48:05;;;;;;;;;;;;;;;;;;4963113;28;7303;-85
2023/07/22 10:50:40;;;;;;;;;;;;;;;;;;4951489;28;7552;-87
2023/07/22 10:53:09;;;;;;;;;;;;;;;;;;4940848;28;7288;-85
2023/07/22 10:55:54;;;;;;;;;;;;;;;;;;4938582;29;6962;-85
2023/07/22 10:58:20;;;;;;;;;;;;;;;;;;4937892;29;8866;-84
2023/07/22 11:00:46;;;;;;;;;;;;;;;;;;4937917;29;8630;-85
2023/07/22 11:03:13;;;;;;;;;;;;;;;;;;4954039;28;8392;-86
2023/07/22 11:05:53;;;;;;;;;;;;;;;;;;4954105;28;8548;-86
2023/07/22 11:08:37;;;;;;;;;;;;;;;;;;4954007;28;8861;-85
2023/07/22 11:11:03;;;;;;;;;;;;;;;;;;4954047;28;8522;-85
2023/07/22 11:13:29;;;;;;;;;;;;;;;;;;4953751;28;8756;-84
2023/07/22 11:15:59;;;;;;;;;;;;;;;;;;4954092;28;8510;-85
2023/07/22 11:18:37;;;;;;;;;;;;;;;;;;4953635;28;7059;-87
2023/07/22 11:21:07;;;;;;;;;;;;;;;;;;4953482;28;7178;-86
2023/07/22 11:23:34;;;;;;;;;;;;;;;;;;4956997;28;7252;-86
2023/07/22 11:26:01;;;;;;;;;;;;;;;;;;4973216;28;8560;-86
2023/07/22 11:28:27;;;;;;;;;;;;;;;;;;4972976;28;9710;-86
2023/07/22 11:30:53;;;;;;;;;;;;;;;;;;4972828;28;7388;-85
2023/07/22 11:33:18;;;;;;;;;;;;;;;;;;4972877;28;8578;-86
2023/07/22 11:35:44;;;;;;;;;;;;;;;;;;4950538;28;7332;-85
2023/07/22 11:38:12;;;;;;;;;;;;;;;;;;4938167;28;7259;-85
2023/07/22 11:40:38;;;;;;;;;;;;;;;;;;4949232;28;8571;-86
2023/07/22 11:43:04;;;;;;;;;;;;;;;;;;4972746;28;8584;-86
2023/07/22 11:45:30;;;;;;;;;;;;;;;;;;4967696;28;8798;-86
2023/07/22 11:47:56;;;;;;;;;;;;;;;;;;4937369;29;7160;-86
2023/07/22 11:50:31;;;;;;;;;;;;;;;;;;4945647;28;8397;-86
2023/07/22 11:52:57;;;;;;;;;;;;;;;;;;4967749;28;7255;-86
2023/07/22 11:55:24;;;;;;;;;;;;;;;;;;4947917;28;8442;-84
2023/07/22 11:57:53;;;;;;;;;;;;;;;;;;4972209;28;7172;-86
2023/07/22 12:00:19;;;;;;;;;;;;;;;;;;4972211;28;7194;-85
2023/07/22 12:02:44;;;;;;;;;;;;;;;;;;4972469;28;8735;-85
2023/07/22 12:05:09;;;;;;;;;;;;;;;;;;4972106;28;9069;-85
2023/07/22 12:07:36;;;;;;;;;;;;;;;;;;4972619;28;7134;-85
2023/07/22 12:10:05;;;;;;;;;;;;;;;;;;4972083;28;8626;-85
2023/07/22 12:12:38;;;;;;;;;;;;;;;;;;4971990;28;7366;-85
2023/07/22 12:15:15;;;;;;;;;;;;;;;;;;4972369;28;6950;-85
2023/07/22 12:17:48;;;;;;;;;;;;;;;;;;4955558;28;8514;-86
2023/07/22 12:20:14;;;;;;;;;;;;;;;;;;4971942;28;7234;-87
2023/07/22 12:22:41;;;;;;;;;;;;;;;;;;4971026;28;8898;-85
2023/07/22 12:25:06;;;;;;;;;;;;;;;;;;4965974;28;8767;-85
2023/07/22 12:27:32;;;;;;;;;;;;;;;;;;4960968;28;8722;-86
2023/07/22 12:29:57;;;;;;;;;;;;;;;;;;4961988;28;8535;-86
2023/07/22 12:32:23;;;;;;;;;;;;;;;;;;4963872;28;8501;-85
2023/07/22 12:34:48;;;;;;;;;;;;;;;;;;4966324;28;7251;-87
2023/07/22 12:37:13;;;;;;;;;;;;;;;;;;4946250;28;8539;-86
2023/07/22 12:39:39;;;;;;;;;;;;;;;;;;4971897;28;8506;-88
2023/07/22 12:42:04;;;;;;;;;;;;;;;;;;4971917;28;8464;-89
2023/07/22 12:44:30;;;;;;;;;;;;;;;;;;4971735;28;8496;-87
2023/07/22 12:46:55;;;;;;;;;;;;;;;;;;4971890;28;7137;-86
2023/07/22 12:49:21;;;;;;;;;;;;;;;;;;4971546;28;8797;-87
2023/07/22 12:51:46;;;;;;;;;;;;;;;;;;4971634;28;9788;-86
2023/07/22 12:54:12;;;;;;;;;;;;;;;;;;4971913;28;8487;-89
2023/07/22 12:56:37;;;;;;;;;;;;;;;;;;4971402;28;9117;-88
2023/07/22 12:59:03;;;;;;;;;;;;;;;;;;4971346;28;8548;-88
2023/07/22 13:01:28;;;;;;;;;;;;;;;;;;4971265;28;8652;-89
2023/07/22 13:03:54;;;;;;;;;;;;;;;;;;4971453;28;7401;-88
2023/07/22 13:06:19;;;;;;;;;;;;;;;;;;4970900;28;8117;-88
2023/07/22 13:08:45;;;;;;;;;;;;;;;;;;4971300;28;8539;-88
2023/07/22 13:11:10;;;;;;;;;;;;;;;;;;4970928;28;7288;-89
2023/07/22 13:13:36;;;;;;;;;;;;;;;;;;4970940;28;8649;-88
2023/07/22 13:16:01;;;;;;;;;;;;;;;;;;4970881;28;7088;-89
2023/07/22 13:18:26;;;;;;;;;;;;;;;;;;4971006;28;7251;-88
2023/07/22 13:20:52;;;;;;;;;;;;;;;;;;4970321;28;8820;-88
2023/07/22 13:23:17;;;;;;;;;;;;;;;;;;4964826;28;8514;-88
2023/07/22 13:25:43;;;;;;;;;;;;;;;;;;4970779;28;8825;-88
2023/07/22 13:28:08;;;;;;;;;;;;;;;;;;4971032;28;8508;-88
2023/07/22 13:30:34;;;;;;;;;;;;;;;;;;4970862;28;8545;-89
2023/07/22 13:32:59;;;;;;;;;;;;;;;;;;4970777;28;7263;-85
2023/07/22 13:35:24;;;;;;;;;;;;;;;;;;4963548;28;8879;-87
2023/07/22 13:37:50;;;;;;;;;;;;;;;;;;4946280;28;8680;-88
2023/07/22 13:40:15;;;;;;;;;;;;;;;;;;4937738;28;8472;-86
2023/07/22 13:42:41;;;;;;;;;;;;;;;;;;4950886;28;8437;-88
2023/07/22 13:45:06;;;;;;;;;;;;;;;;;;4951119;28;8583;-87
2023/07/22 13:47:32;;;;;;;;;;;;;;;;;;4951223;28;8864;-86
2023/07/22 13:49:58;;;;;;;;;;;;;;;;;;4950886;28;9432;-88
2023/07/22 13:52:23;;;;;;;;;;;;;;;;;;4951316;28;9031;-87
2023/07/22 13:54:49;;;;;;;;;;;;;;;;;;4950932;28;8804;-88
2023/07/22 13:57:14;;;;;;;;;;;;;;;;;;4950724;28;7651;-87
2023/07/22 13:59:39;;;;;;;;;;;;;;;;;;4950312;28;8498;-86
2023/07/22 14:02:05;;;;;;;;;;;;;;;;;;4950012;28;7077;-88
2023/07/22 14:04:30;;;;;;;;;;;;;;;;;;4949938;28;7130;-84
2023/07/22 14:06:56;;;;;;;;;;;;;;;;;;4950600;28;8503;-87
2023/07/22 14:09:21;;;;;;;;;;;;;;;;;;4949537;28;7131;-86
2023/07/22 14:11:47;;;;;;;;;;;;;;;;;;4962087;28;8481;-85
2023/07/22 14:14:12;;;;;;;;;;;;;;;;;;4935004;29;7575;-84
2023/07/22 14:16:37;;;;;;;;;;;;;;;;;;4934828;29;7067;-84
2023/07/22 14:19:03;;;;;;;;;;;;;;;;;;4934473;29;7925;-86
2023/07/22 14:21:28;;;;;;;;;;;;;;;;;;4934894;29;7213;-86
2023/07/22 14:23:55;;;;;;;;;;;;;;;;;;4945231;28;8465;-85
2023/07/22 14:26:20;;;;;;;;;;;;;;;;;;4954200;28;8554;-90
2023/07/22 14:28:46;;;;;;;;;;;;;;;;;;4953646;28;8480;-88
2023/07/22 14:31:11;;;;;;;;;;;;;;;;;;4950758;28;8595;-90
2023/07/22 14:33:37;;;;;;;;;;;;;;;;;;4950968;28;8459;-88
2023/07/22 14:36:03;;;;;;;;;;;;;;;;;;4951144;28;8807;-88
2023/07/22 14:38:28;;;;;;;;;;;;;;;;;;4959306;28;8603;-88
2023/07/22 14:40:54;;;;;;;;;;;;;;;;;;4969538;28;7565;-89
2023/07/22 14:43:19;;;;;;;;;;;;;;;;;;4969871;28;8475;-88
2023/07/22 14:45:44;;;;;;;;;;;;;;;;;;4970038;28;8980;-88
2023/07/22 14:48:10;;;;;;;;;;;;;;;;;;4962031;28;8378;-90
2023/07/22 14:50:35;;;;;;;;;;;;;;;;;;4945653;29;7265;-90
2023/07/22 14:53:01;;;;;;;;;;;;;;;;;;4970854;28;7117;-89
2023/07/22 14:55:26;;;;;;;;;;;;;;;;;;4970886;28;7341;-90
2023/07/22 14:57:51;;;;;;;;;;;;;;;;;;4970655;28;8680;-90
2023/07/22 15:00:18;;;;;;;;;;;;;;;;;;4970982;28;8491;-92
2023/07/22 15:02:43;;;;;;;;;;;;;;;;;;4972914;28;8461;-89
2023/07/22 15:05:09;;;;;;;;;;;;;;;;;;4971683;28;8490;-91
2023/07/22 15:07:34;;;;;;;;;;;;;;;;;;4970765;28;8560;-89
2023/07/22 15:09:59;;;;;;;;;;;;;;;;;;4970225;28;7264;-92
2023/07/22 15:12:25;;;;;;;;;;;;;;;;;;4969135;28;8394;-91
2023/07/22 15:14:50;;;;;;;;;;;;;;;;;;4970034;28;7118;-92
2023/07/22 15:17:16;;;;;;;;;;;;;;;;;;4969808;28;7216;-94
2023/07/22 15:19:41;;;;;;;;;;;;;;;;;;4969692;28;6938;-94
2023/07/22 15:22:07;;;;;;;;;;;;;;;;;;4970272;28;8424;-94
2023/07/22 15:24:32;;;;;;;;;;;;;;;;;;4949116;28;7199;-94
2023/07/22 15:26:58;;;;;;;;;;;;;;;;;;4933726;29;8408;-91
2023/07/22 15:29:23;;;;;;;;;;;;;;;;;;4938846;28;7007;-88
2023/07/22 15:31:48;;;;;;;;;;;;;;;;;;4954343;28;8791;-88
2023/07/22 15:34:14;;;;;;;;;;;;;;;;;;4971571;28;8835;-89
2023/07/22 15:36:39;;;;;;;;;;;;;;;;;;4972218;28;7259;-90
2023/07/22 15:39:05;;;;;;;;;;;;;;;;;;4973494;28;7128;-89
2023/07/22 15:41:31;;;;;;;;;;;;;;;;;;4972923;28;7251;-88
2023/07/22 15:43:57;;;;;;;;;;;;;;;;;;4973096;28;8530;-89
2023/07/22 15:46:22;;;;;;;;;;;;;;;;;;4973143;28;7208;-88
2023/07/22 15:48:47;;;;;;;;;;;;;;;;;;4973332;28;7197;-92
2023/07/22 15:51:13;;;;;;;;;;;;;;;;;;4972698;28;7085;-90
2023/07/22 15:53:38;;;;;;;;;;;;;;;;;;4972825;28;8519;-89
2023/07/22 15:56:04;;;;;;;;;;;;;;;;;;4973294;28;8481;-90
2023/07/22 15:58:29;;;;;;;;;;;;;;;;;;4972862;28;8540;-92
2023/07/22 16:00:55;;;;;;;;;;;;;;;;;;4973147;28;7353;-90
2023/07/22 16:03:20;;;;;;;;;;;;;;;;;;4973824;28;9040;-91
2023/07/22 16:05:46;;;;;;;;;;;;;;;;;;4972605;28;6933;-89
2023/07/22 16:08:11;;;;;;;;;;;;;;;;;;4962854;28;7318;-90
2023/07/22 16:10:37;;;;;;;;;;;;;;;;;;4937170;29;7146;-90
2023/07/22 16:13:02;;;;;;;;;;;;;;;;;;4936842;29;8794;-88
2023/07/22 16:18:26;;;;;;;;;;;;;;;;;;4944035;29;7074;-91
2023/07/22 16:20:51;;;;;;;;;;;;;;;;;;4948730;28;8435;-91
2023/07/22 16:23:17;;;;;;;;;;;;;;;;;;4965312;28;7513;-91
2023/07/22 16:25:42;;;;;;;;;;;;;;;;;;4965637;28;6937;-91
2023/07/22 16:28:08;;;;;;;;;;;;;;;;;;4964736;28;8902;-90
2023/07/22 16:30:33;;;;;;;;;;;;;;;;;;4965030;28;7167;-90
2023/07/22 16:32:59;;;;;;;;;;;;;;;;;;4964782;28;8902;-90
2023/07/22 16:35:24;;;;;;;;;;;;;;;;;;4964708;28;8511;-91
2023/07/22 16:37:49;;;;;;;;;;;;;;;;;;4964327;28;8420;-87
2023/07/22 16:40:15;;;;;;;;;;;;;;;;;;4964082;28;8720;-86
2023/07/22 16:42:41;;;;;;;;;;;;;;;;;;4964007;28;8430;-89
2023/07/22 16:45:07;;;;;;;;;;;;;;;;;;4964445;28;8521;-91
2023/07/22 16:47:33;;;;;;;;;;;;;;;;;;4964664;28;8490;-90
2023/07/22 16:49:59;;;;;;;;;;;;;;;;;;4971097;28;8877;-91
2023/07/22 16:52:24;;;;;;;;;;;;;;;;;;4980481;28;7247;-89
2023/07/22 16:54:50;;;;;;;;;;;;;;;;;;4948577;29;8551;-86
2023/07/22 16:57:15;;;;;;;;;;;;;;;;;;4951840;28;7069;-87
2023/07/22 16:59:41;;;;;;;;;;;;;;;;;;4980091;28;6933;-89